sensor_id;sensor_type;location;lat;lon;timestamp;P1;durP1;ratioP1;P2;durP2;ratioP2
15665;SDS011;20725;51.196;3.510;2024-02-14T00:00:02;10.27;;;5.67;;
15665;SDS011;20725;51.196;3.510;2024-02-14T00:02:30;6.27;;;3.87;;
15665;SDS011;20725;51.196;3.510;2024-02-14T00:04:58;5.43;;;4.60;;
15665;SDS011;20725;51.196;3.510;2024-02-14T00:07:25;7.43;;;5.53;;
15665;SDS011;20725;51.196;3.510;2024-02-14T00:09:53;6.00;;;5.50;;
15665;SDS011;20725;51.196;3.510;2024-02-14T00:12:20;6.30;;;4.53;;
15665;SDS011;20725;51.196;3.510;2024-02-14T00:14:50;5.27;;;4.77;;
15665;SDS011;20725;51.196;3.510;2024-02-14T00:17:18;6.70;;;5.60;;
15665;SDS011;20725;51.196;3.510;2024-02-14T00:19:45;8.63;;;6.17;;
15665;SDS011;20725;51.196;3.510;2024-02-14T00:22:12;5.73;;;4.53;;
15665;SDS011;20725;51.196;3.510;2024-02-14T00:24:39;5.57;;;5.03;;
15665;SDS011;20725;51.196;3.510;2024-02-14T00:27:06;6.50;;;5.57;;
15665;SDS011;20725;51.196;3.510;2024-02-14T00:29:33;5.53;;;5.00;;
15665;SDS011;20725;51.196;3.510;2024-02-14T00:32:02;4.77;;;4.20;;
15665;SDS011;20725;51.196;3.510;2024-02-14T00:34:30;6.80;;;6.20;;
15665;SDS011;20725;51.196;3.510;2024-02-14T00:36:57;4.27;;;3.90;;
15665;SDS011;20725;51.196;3.510;2024-02-14T00:39:24;5.90;;;4.30;;
15665;SDS011;20725;51.196;3.510;2024-02-14T00:41:51;5.37;;;4.90;;
15665;SDS011;20725;51.196;3.510;2024-02-14T00:44:19;7.10;;;6.23;;
15665;SDS011;20725;51.196;3.510;2024-02-14T00:46:47;5.47;;;4.97;;
15665;SDS011;20725;51.196;3.510;2024-02-14T00:49:15;5.87;;;5.33;;
15665;SDS011;20725;51.196;3.510;2024-02-14T00:51:42;6.33;;;5.80;;
15665;SDS011;20725;51.196;3.510;2024-02-14T00:54:10;7.37;;;6.47;;
15665;SDS011;20725;51.196;3.510;2024-02-14T00:56:38;5.97;;;5.47;;
15665;SDS011;20725;51.196;3.510;2024-02-14T00:59:05;8.60;;;5.00;;
15665;SDS011;20725;51.196;3.510;2024-02-14T01:01:32;5.87;;;5.30;;
15665;SDS011;20725;51.196;3.510;2024-02-14T01:04:00;6.40;;;5.80;;
15665;SDS011;20725;51.196;3.510;2024-02-14T01:06:29;6.97;;;6.27;;
15665;SDS011;20725;51.196;3.510;2024-02-14T01:08:59;7.77;;;7.00;;
15665;SDS011;20725;51.196;3.510;2024-02-14T01:11:26;6.43;;;5.93;;
15665;SDS011;20725;51.196;3.510;2024-02-14T01:13:53;8.67;;;6.90;;
15665;SDS011;20725;51.196;3.510;2024-02-14T01:16:20;7.27;;;5.20;;
15665;SDS011;20725;51.196;3.510;2024-02-14T01:18:48;7.30;;;6.63;;
15665;SDS011;20725;51.196;3.510;2024-02-14T01:21:15;6.23;;;5.50;;
15665;SDS011;20725;51.196;3.510;2024-02-14T01:23:44;7.67;;;6.97;;
15665;SDS011;20725;51.196;3.510;2024-02-14T01:26:11;8.07;;;6.70;;
15665;SDS011;20725;51.196;3.510;2024-02-14T01:28:39;7.57;;;6.80;;
15665;SDS011;20725;51.196;3.510;2024-02-14T01:31:08;8.17;;;7.20;;
15665;SDS011;20725;51.196;3.510;2024-02-14T01:33:37;6.37;;;5.47;;
15665;SDS011;20725;51.196;3.510;2024-02-14T01:36:05;7.83;;;7.00;;
15665;SDS011;20725;51.196;3.510;2024-02-14T01:38:32;9.30;;;8.40;;
15665;SDS011;20725;51.196;3.510;2024-02-14T01:41:02;10.10;;;6.83;;
15665;SDS011;20725;51.196;3.510;2024-02-14T01:43:29;7.60;;;6.90;;
15665;SDS011;20725;51.196;3.510;2024-02-14T01:45:57;8.10;;;7.07;;
15665;SDS011;20725;51.196;3.510;2024-02-14T01:48:28;6.30;;;5.03;;
15665;SDS011;20725;51.196;3.510;2024-02-14T01:50:55;8.40;;;7.10;;
15665;SDS011;20725;51.196;3.510;2024-02-14T01:53:22;8.63;;;7.57;;
15665;SDS011;20725;51.196;3.510;2024-02-14T01:55:50;7.63;;;6.93;;
15665;SDS011;20725;51.196;3.510;2024-02-14T01:58:18;8.33;;;7.13;;
15665;SDS011;20725;51.196;3.510;2024-02-14T02:00:46;7.23;;;6.63;;
15665;SDS011;20725;51.196;3.510;2024-02-14T02:03:13;6.43;;;5.90;;
15665;SDS011;20725;51.196;3.510;2024-02-14T02:05:41;6.53;;;5.93;;
15665;SDS011;20725;51.196;3.510;2024-02-14T02:08:08;7.77;;;7.03;;
15665;SDS011;20725;51.196;3.510;2024-02-14T02:10:35;7.53;;;6.93;;
15665;SDS011;20725;51.196;3.510;2024-02-14T02:13:03;10.20;;;7.63;;
15665;SDS011;20725;51.196;3.510;2024-02-14T02:15:32;7.67;;;5.93;;
15665;SDS011;20725;51.196;3.510;2024-02-14T02:17:59;7.40;;;6.73;;
15665;SDS011;20725;51.196;3.510;2024-02-14T02:20:27;7.60;;;6.83;;
15665;SDS011;20725;51.196;3.510;2024-02-14T02:22:55;7.90;;;7.20;;
15665;SDS011;20725;51.196;3.510;2024-02-14T02:25:22;9.27;;;8.47;;
15665;SDS011;20725;51.196;3.510;2024-02-14T02:27:49;10.73;;;8.30;;
15665;SDS011;20725;51.196;3.510;2024-02-14T02:30:17;8.20;;;7.40;;
15665;SDS011;20725;51.196;3.510;2024-02-14T02:32:44;7.87;;;7.07;;
15665;SDS011;20725;51.196;3.510;2024-02-14T02:35:11;7.40;;;6.77;;
15665;SDS011;20725;51.196;3.510;2024-02-14T02:37:39;8.13;;;7.40;;
15665;SDS011;20725;51.196;3.510;2024-02-14T02:40:08;11.70;;;7.27;;
15665;SDS011;20725;51.196;3.510;2024-02-14T02:42:35;10.73;;;7.70;;
15665;SDS011;20725;51.196;3.510;2024-02-14T02:45:03;6.83;;;5.53;;
15665;SDS011;20725;51.196;3.510;2024-02-14T02:47:31;8.80;;;6.73;;
15665;SDS011;20725;51.196;3.510;2024-02-14T02:49:58;6.67;;;6.00;;
15665;SDS011;20725;51.196;3.510;2024-02-14T02:52:28;10.53;;;7.17;;
15665;SDS011;20725;51.196;3.510;2024-02-14T02:54:56;9.20;;;8.30;;
15665;SDS011;20725;51.196;3.510;2024-02-14T02:57:24;11.60;;;8.63;;
15665;SDS011;20725;51.196;3.510;2024-02-14T02:59:51;11.00;;;8.53;;
15665;SDS011;20725;51.196;3.510;2024-02-14T03:02:19;10.97;;;9.10;;
15665;SDS011;20725;51.196;3.510;2024-02-14T03:04:47;8.50;;;6.77;;
15665;SDS011;20725;51.196;3.510;2024-02-14T03:07:15;10.77;;;8.30;;
15665;SDS011;20725;51.196;3.510;2024-02-14T03:09:43;9.07;;;8.17;;
15665;SDS011;20725;51.196;3.510;2024-02-14T03:12:11;8.87;;;8.03;;
15665;SDS011;20725;51.196;3.510;2024-02-14T03:14:42;7.80;;;6.87;;
15665;SDS011;20725;51.196;3.510;2024-02-14T03:17:10;8.77;;;7.90;;
15665;SDS011;20725;51.196;3.510;2024-02-14T03:19:37;10.80;;;8.43;;
15665;SDS011;20725;51.196;3.510;2024-02-14T03:22:05;12.33;;;8.83;;
15665;SDS011;20725;51.196;3.510;2024-02-14T03:24:34;11.10;;;8.97;;
15665;SDS011;20725;51.196;3.510;2024-02-14T03:27:02;10.80;;;8.83;;
15665;SDS011;20725;51.196;3.510;2024-02-14T03:29:30;10.40;;;9.30;;
15665;SDS011;20725;51.196;3.510;2024-02-14T03:31:59;10.67;;;9.63;;
15665;SDS011;20725;51.196;3.510;2024-02-14T03:34:29;11.63;;;9.00;;
15665;SDS011;20725;51.196;3.510;2024-02-14T03:36:58;12.53;;;9.77;;
15665;SDS011;20725;51.196;3.510;2024-02-14T03:39:26;11.53;;;9.50;;
15665;SDS011;20725;51.196;3.510;2024-02-14T03:41:53;12.47;;;8.63;;
15665;SDS011;20725;51.196;3.510;2024-02-14T03:44:21;10.67;;;9.57;;
15665;SDS011;20725;51.196;3.510;2024-02-14T03:46:48;12.70;;;8.07;;
15665;SDS011;20725;51.196;3.510;2024-02-14T03:49:17;18.33;;;10.50;;
15665;SDS011;20725;51.196;3.510;2024-02-14T03:51:44;10.20;;;9.17;;
15665;SDS011;20725;51.196;3.510;2024-02-14T03:54:14;13.00;;;9.73;;
15665;SDS011;20725;51.196;3.510;2024-02-14T03:56:41;12.67;;;8.10;;
15665;SDS011;20725;51.196;3.510;2024-02-14T03:59:08;14.27;;;9.83;;
15665;SDS011;20725;51.196;3.510;2024-02-14T04:01:35;10.23;;;7.97;;
15665;SDS011;20725;51.196;3.510;2024-02-14T04:04:02;13.60;;;7.40;;
15665;SDS011;20725;51.196;3.510;2024-02-14T04:06:32;11.23;;;8.23;;
15665;SDS011;20725;51.196;3.510;2024-02-14T04:08:59;16.23;;;10.37;;
15665;SDS011;20725;51.196;3.510;2024-02-14T04:11:27;11.63;;;8.77;;
15665;SDS011;20725;51.196;3.510;2024-02-14T04:13:54;14.97;;;8.27;;
15665;SDS011;20725;51.196;3.510;2024-02-14T04:16:21;9.30;;;7.87;;
15665;SDS011;20725;51.196;3.510;2024-02-14T04:18:48;12.63;;;9.87;;
15665;SDS011;20725;51.196;3.510;2024-02-14T04:21:15;17.20;;;10.20;;
15665;SDS011;20725;51.196;3.510;2024-02-14T04:23:44;10.97;;;9.13;;
15665;SDS011;20725;51.196;3.510;2024-02-14T04:26:17;9.70;;;8.70;;
15665;SDS011;20725;51.196;3.510;2024-02-14T04:28:45;9.37;;;7.93;;
15665;SDS011;20725;51.196;3.510;2024-02-14T04:31:12;13.43;;;8.93;;
15665;SDS011;20725;51.196;3.510;2024-02-14T04:33:39;10.70;;;9.60;;
15665;SDS011;20725;51.196;3.510;2024-02-14T04:36:06;11.10;;;7.57;;
15665;SDS011;20725;51.196;3.510;2024-02-14T04:38:34;11.40;;;8.23;;
15665;SDS011;20725;51.196;3.510;2024-02-14T04:41:02;9.20;;;6.73;;
15665;SDS011;20725;51.196;3.510;2024-02-14T04:43:29;11.07;;;8.10;;
15665;SDS011;20725;51.196;3.510;2024-02-14T04:45:57;11.13;;;8.27;;
15665;SDS011;20725;51.196;3.510;2024-02-14T04:48:24;9.37;;;8.40;;
15665;SDS011;20725;51.196;3.510;2024-02-14T04:50:52;10.03;;;7.60;;
15665;SDS011;20725;51.196;3.510;2024-02-14T04:53:19;11.87;;;7.63;;
15665;SDS011;20725;51.196;3.510;2024-02-14T04:55:46;14.23;;;10.30;;
15665;SDS011;20725;51.196;3.510;2024-02-14T04:58:15;9.87;;;7.97;;
15665;SDS011;20725;51.196;3.510;2024-02-14T05:00:42;8.33;;;7.23;;
15665;SDS011;20725;51.196;3.510;2024-02-14T05:03:09;16.53;;;8.30;;
15665;SDS011;20725;51.196;3.510;2024-02-14T05:05:36;15.07;;;9.23;;
15665;SDS011;20725;51.196;3.510;2024-02-14T05:08:04;8.23;;;7.43;;
15665;SDS011;20725;51.196;3.510;2024-02-14T05:10:32;8.20;;;6.23;;
15665;SDS011;20725;51.196;3.510;2024-02-14T05:12:59;7.63;;;6.83;;
15665;SDS011;20725;51.196;3.510;2024-02-14T05:15:28;10.07;;;7.27;;
15665;SDS011;20725;51.196;3.510;2024-02-14T05:17:55;11.37;;;6.97;;
15665;SDS011;20725;51.196;3.510;2024-02-14T05:20:23;12.60;;;8.23;;
15665;SDS011;20725;51.196;3.510;2024-02-14T05:22:50;9.23;;;8.17;;
15665;SDS011;20725;51.196;3.510;2024-02-14T05:25:17;8.93;;;6.83;;
15665;SDS011;20725;51.196;3.510;2024-02-14T05:27:45;7.37;;;5.83;;
15665;SDS011;20725;51.196;3.510;2024-02-14T05:30:12;14.37;;;7.60;;
15665;SDS011;20725;51.196;3.510;2024-02-14T05:32:41;12.33;;;7.60;;
15665;SDS011;20725;51.196;3.510;2024-02-14T05:35:08;11.97;;;8.03;;
15665;SDS011;20725;51.196;3.510;2024-02-14T05:37:35;11.33;;;6.93;;
15665;SDS011;20725;51.196;3.510;2024-02-14T05:40:03;11.70;;;6.97;;
15665;SDS011;20725;51.196;3.510;2024-02-14T05:42:32;13.13;;;8.07;;
15665;SDS011;20725;51.196;3.510;2024-02-14T05:45:00;8.43;;;7.53;;
15665;SDS011;20725;51.196;3.510;2024-02-14T05:47:28;9.77;;;7.33;;
15665;SDS011;20725;51.196;3.510;2024-02-14T05:49:58;10.27;;;7.43;;
15665;SDS011;20725;51.196;3.510;2024-02-14T05:52:25;8.13;;;7.20;;
15665;SDS011;20725;51.196;3.510;2024-02-14T05:54:52;12.93;;;7.47;;
15665;SDS011;20725;51.196;3.510;2024-02-14T05:57:20;8.43;;;7.63;;
15665;SDS011;20725;51.196;3.510;2024-02-14T05:59:48;7.90;;;6.43;;
15665;SDS011;20725;51.196;3.510;2024-02-14T06:02:15;9.87;;;7.23;;
15665;SDS011;20725;51.196;3.510;2024-02-14T06:04:42;15.73;;;7.43;;
15665;SDS011;20725;51.196;3.510;2024-02-14T06:07:11;7.83;;;7.03;;
15665;SDS011;20725;51.196;3.510;2024-02-14T06:09:38;8.30;;;6.93;;
15665;SDS011;20725;51.196;3.510;2024-02-14T06:12:06;8.77;;;7.67;;
15665;SDS011;20725;51.196;3.510;2024-02-14T06:14:33;11.03;;;6.37;;
15665;SDS011;20725;51.196;3.510;2024-02-14T06:17:00;12.50;;;8.03;;
15665;SDS011;20725;51.196;3.510;2024-02-14T06:19:27;13.30;;;7.93;;
15665;SDS011;20725;51.196;3.510;2024-02-14T06:21:55;12.43;;;7.53;;
15665;SDS011;20725;51.196;3.510;2024-02-14T06:24:25;10.03;;;7.13;;
15665;SDS011;20725;51.196;3.510;2024-02-14T06:26:52;12.97;;;7.27;;
15665;SDS011;20725;51.196;3.510;2024-02-14T06:29:19;12.77;;;7.47;;
15665;SDS011;20725;51.196;3.510;2024-02-14T06:31:47;14.73;;;7.57;;
15665;SDS011;20725;51.196;3.510;2024-02-14T06:34:15;11.07;;;7.37;;
15665;SDS011;20725;51.196;3.510;2024-02-14T06:36:45;14.37;;;8.37;;
15665;SDS011;20725;51.196;3.510;2024-02-14T06:39:12;7.73;;;6.90;;
15665;SDS011;20725;51.196;3.510;2024-02-14T06:41:41;10.10;;;7.50;;
15665;SDS011;20725;51.196;3.510;2024-02-14T06:44:08;8.53;;;7.47;;
15665;SDS011;20725;51.196;3.510;2024-02-14T06:46:36;12.20;;;7.57;;
15665;SDS011;20725;51.196;3.510;2024-02-14T06:49:03;10.77;;;8.00;;
15665;SDS011;20725;51.196;3.510;2024-02-14T06:51:30;13.17;;;7.67;;
15665;SDS011;20725;51.196;3.510;2024-02-14T06:53:58;10.27;;;6.40;;
15665;SDS011;20725;51.196;3.510;2024-02-14T06:56:25;12.83;;;9.03;;
15665;SDS011;20725;51.196;3.510;2024-02-14T06:58:54;17.00;;;8.17;;
15665;SDS011;20725;51.196;3.510;2024-02-14T07:01:25;13.20;;;8.77;;
15665;SDS011;20725;51.196;3.510;2024-02-14T07:03:52;12.73;;;9.20;;
15665;SDS011;20725;51.196;3.510;2024-02-14T07:06:19;10.23;;;6.43;;
15665;SDS011;20725;51.196;3.510;2024-02-14T07:08:47;14.73;;;10.57;;
15665;SDS011;20725;51.196;3.510;2024-02-14T07:11:14;16.67;;;10.60;;
15665;SDS011;20725;51.196;3.510;2024-02-14T07:13:42;15.10;;;7.27;;
15665;SDS011;20725;51.196;3.510;2024-02-14T07:16:10;14.97;;;10.57;;
15665;SDS011;20725;51.196;3.510;2024-02-14T07:18:37;11.50;;;7.30;;
15665;SDS011;20725;51.196;3.510;2024-02-14T07:21:05;18.03;;;11.37;;
15665;SDS011;20725;51.196;3.510;2024-02-14T07:23:32;19.30;;;10.03;;
15665;SDS011;20725;51.196;3.510;2024-02-14T07:26:00;17.67;;;11.73;;
15665;SDS011;20725;51.196;3.510;2024-02-14T07:28:27;22.10;;;11.47;;
15665;SDS011;20725;51.196;3.510;2024-02-14T07:30:54;14.73;;;10.63;;
15665;SDS011;20725;51.196;3.510;2024-02-14T07:33:23;15.13;;;9.97;;
15665;SDS011;20725;51.196;3.510;2024-02-14T07:35:50;18.10;;;10.40;;
15665;SDS011;20725;51.196;3.510;2024-02-14T07:38:17;15.97;;;9.37;;
15665;SDS011;20725;51.196;3.510;2024-02-14T07:40:44;13.37;;;8.10;;
15665;SDS011;20725;51.196;3.510;2024-02-14T07:43:12;11.73;;;9.17;;
15665;SDS011;20725;51.196;3.510;2024-02-14T07:45:39;17.97;;;8.50;;
15665;SDS011;20725;51.196;3.510;2024-02-14T07:48:06;22.03;;;10.87;;
15665;SDS011;20725;51.196;3.510;2024-02-14T07:50:36;17.27;;;9.47;;
15665;SDS011;20725;51.196;3.510;2024-02-14T07:53:03;13.77;;;8.50;;
15665;SDS011;20725;51.196;3.510;2024-02-14T07:55:31;15.87;;;9.33;;
15665;SDS011;20725;51.196;3.510;2024-02-14T07:57:58;18.93;;;11.57;;
15665;SDS011;20725;51.196;3.510;2024-02-14T08:00:25;16.57;;;9.93;;
15665;SDS011;20725;51.196;3.510;2024-02-14T08:02:53;25.40;;;11.73;;
15665;SDS011;20725;51.196;3.510;2024-02-14T08:05:20;17.03;;;10.37;;
15665;SDS011;20725;51.196;3.510;2024-02-14T08:07:49;15.73;;;9.80;;
15665;SDS011;20725;51.196;3.510;2024-02-14T08:10:16;13.73;;;11.27;;
15665;SDS011;20725;51.196;3.510;2024-02-14T08:12:43;20.33;;;11.97;;
15665;SDS011;20725;51.196;3.510;2024-02-14T08:15:12;14.60;;;10.60;;
15665;SDS011;20725;51.196;3.510;2024-02-14T08:17:39;14.33;;;10.37;;
15665;SDS011;20725;51.196;3.510;2024-02-14T08:20:07;12.53;;;7.83;;
15665;SDS011;20725;51.196;3.510;2024-02-14T08:22:35;12.13;;;9.50;;
15665;SDS011;20725;51.196;3.510;2024-02-14T08:25:05;14.70;;;10.97;;
15665;SDS011;20725;51.196;3.510;2024-02-14T08:27:32;18.00;;;12.87;;
15665;SDS011;20725;51.196;3.510;2024-02-14T08:29:59;17.13;;;12.77;;
15665;SDS011;20725;51.196;3.510;2024-02-14T08:32:26;19.57;;;12.07;;
15665;SDS011;20725;51.196;3.510;2024-02-14T08:34:53;13.67;;;8.70;;
15665;SDS011;20725;51.196;3.510;2024-02-14T08:37:21;9.00;;;8.13;;
15665;SDS011;20725;51.196;3.510;2024-02-14T08:39:49;14.80;;;10.53;;
15665;SDS011;20725;51.196;3.510;2024-02-14T08:42:18;10.50;;;7.13;;
15665;SDS011;20725;51.196;3.510;2024-02-14T08:44:45;12.30;;;7.40;;
15665;SDS011;20725;51.196;3.510;2024-02-14T08:47:13;14.87;;;10.10;;
15665;SDS011;20725;51.196;3.510;2024-02-14T08:49:40;11.90;;;9.23;;
15665;SDS011;20725;51.196;3.510;2024-02-14T08:52:08;12.57;;;9.43;;
15665;SDS011;20725;51.196;3.510;2024-02-14T08:54:35;10.80;;;8.40;;
15665;SDS011;20725;51.196;3.510;2024-02-14T08:57:03;10.80;;;7.90;;
15665;SDS011;20725;51.196;3.510;2024-02-14T08:59:32;13.03;;;6.57;;
15665;SDS011;20725;51.196;3.510;2024-02-14T09:01:59;9.60;;;7.33;;
15665;SDS011;20725;51.196;3.510;2024-02-14T09:04:26;12.77;;;8.47;;
15665;SDS011;20725;51.196;3.510;2024-02-14T09:06:55;15.60;;;10.20;;
15665;SDS011;20725;51.196;3.510;2024-02-14T09:09:22;12.03;;;8.40;;
15665;SDS011;20725;51.196;3.510;2024-02-14T09:11:50;11.90;;;7.70;;
15665;SDS011;20725;51.196;3.510;2024-02-14T09:14:18;10.67;;;8.97;;
15665;SDS011;20725;51.196;3.510;2024-02-14T09:16:47;12.17;;;8.23;;
15665;SDS011;20725;51.196;3.510;2024-02-14T09:19:14;9.87;;;6.67;;
15665;SDS011;20725;51.196;3.510;2024-02-14T09:21:41;9.73;;;6.93;;
15665;SDS011;20725;51.196;3.510;2024-02-14T09:24:09;7.87;;;6.57;;
15665;SDS011;20725;51.196;3.510;2024-02-14T09:26:38;10.50;;;6.67;;
15665;SDS011;20725;51.196;3.510;2024-02-14T09:29:05;7.57;;;6.67;;
15665;SDS011;20725;51.196;3.510;2024-02-14T09:31:32;8.67;;;6.30;;
15665;SDS011;20725;51.196;3.510;2024-02-14T09:34:01;6.57;;;5.03;;
15665;SDS011;20725;51.196;3.510;2024-02-14T09:36:28;6.57;;;5.83;;
15665;SDS011;20725;51.196;3.510;2024-02-14T09:38:56;8.93;;;5.77;;
15665;SDS011;20725;51.196;3.510;2024-02-14T09:41:25;5.03;;;4.63;;
15665;SDS011;20725;51.196;3.510;2024-02-14T09:43:53;8.37;;;6.33;;
15665;SDS011;20725;51.196;3.510;2024-02-14T09:46:21;7.73;;;6.90;;
15665;SDS011;20725;51.196;3.510;2024-02-14T09:48:49;7.93;;;7.23;;
15665;SDS011;20725;51.196;3.510;2024-02-14T09:51:18;8.77;;;7.70;;
15665;SDS011;20725;51.196;3.510;2024-02-14T09:53:46;5.83;;;5.33;;
15665;SDS011;20725;51.196;3.510;2024-02-14T09:56:14;9.43;;;8.03;;
15665;SDS011;20725;51.196;3.510;2024-02-14T09:58:44;6.00;;;5.50;;
15665;SDS011;20725;51.196;3.510;2024-02-14T10:01:15;9.67;;;7.90;;
15665;SDS011;20725;51.196;3.510;2024-02-14T10:03:42;8.97;;;7.27;;
15665;SDS011;20725;51.196;3.510;2024-02-14T10:06:10;7.60;;;6.53;;
15665;SDS011;20725;51.196;3.510;2024-02-14T10:08:38;7.80;;;6.27;;
15665;SDS011;20725;51.196;3.510;2024-02-14T10:11:07;6.10;;;5.63;;
15665;SDS011;20725;51.196;3.510;2024-02-14T10:13:36;7.17;;;6.47;;
15665;SDS011;20725;51.196;3.510;2024-02-14T10:16:04;10.77;;;7.73;;
15665;SDS011;20725;51.196;3.510;2024-02-14T10:18:33;4.73;;;4.33;;
15665;SDS011;20725;51.196;3.510;2024-02-14T10:21:00;9.03;;;7.23;;
15665;SDS011;20725;51.196;3.510;2024-02-14T10:23:27;7.30;;;6.70;;
15665;SDS011;20725;51.196;3.510;2024-02-14T10:25:56;6.73;;;6.10;;
15665;SDS011;20725;51.196;3.510;2024-02-14T10:28:23;8.47;;;5.50;;
15665;SDS011;20725;51.196;3.510;2024-02-14T10:30:51;6.33;;;5.73;;
15665;SDS011;20725;51.196;3.510;2024-02-14T10:33:21;6.07;;;5.47;;
15665;SDS011;20725;51.196;3.510;2024-02-14T10:35:49;6.07;;;5.47;;
15665;SDS011;20725;51.196;3.510;2024-02-14T10:38:16;5.93;;;5.33;;
15665;SDS011;20725;51.196;3.510;2024-02-14T10:40:45;8.60;;;6.30;;
15665;SDS011;20725;51.196;3.510;2024-02-14T10:43:15;7.90;;;6.77;;
15665;SDS011;20725;51.196;3.510;2024-02-14T10:45:42;7.30;;;6.60;;
15665;SDS011;20725;51.196;3.510;2024-02-14T10:48:11;6.40;;;5.80;;
15665;SDS011;20725;51.196;3.510;2024-02-14T10:50:40;7.97;;;7.20;;
15665;SDS011;20725;51.196;3.510;2024-02-14T10:53:10;7.63;;;6.33;;
15665;SDS011;20725;51.196;3.510;2024-02-14T10:55:40;6.90;;;6.30;;
15665;SDS011;20725;51.196;3.510;2024-02-14T10:58:07;6.67;;;6.07;;
15665;SDS011;20725;51.196;3.510;2024-02-14T11:00:36;6.60;;;6.00;;
15665;SDS011;20725;51.196;3.510;2024-02-14T11:03:04;6.50;;;5.43;;
15665;SDS011;20725;51.196;3.510;2024-02-14T11:05:31;4.23;;;3.93;;
15665;SDS011;20725;51.196;3.510;2024-02-14T11:08:10;5.07;;;4.60;;
15665;SDS011;20725;51.196;3.510;2024-02-14T11:10:40;6.63;;;6.03;;
15665;SDS011;20725;51.196;3.510;2024-02-14T11:13:09;6.33;;;5.80;;
15665;SDS011;20725;51.196;3.510;2024-02-14T11:15:38;7.00;;;6.40;;
15665;SDS011;20725;51.196;3.510;2024-02-14T11:18:06;6.07;;;5.47;;
15665;SDS011;20725;51.196;3.510;2024-02-14T11:20:34;6.73;;;5.93;;
15665;SDS011;20725;51.196;3.510;2024-02-14T11:23:02;8.00;;;5.87;;
15665;SDS011;20725;51.196;3.510;2024-02-14T11:25:31;5.73;;;5.27;;
15665;SDS011;20725;51.196;3.510;2024-02-14T11:27:59;6.37;;;5.87;;
15665;SDS011;20725;51.196;3.510;2024-02-14T11:30:30;8.83;;;7.17;;
15665;SDS011;20725;51.196;3.510;2024-02-14T11:33:15;8.50;;;7.20;;
15665;SDS011;20725;51.196;3.510;2024-02-14T11:35:45;5.27;;;4.77;;
15665;SDS011;20725;51.196;3.510;2024-02-14T11:38:12;8.90;;;6.57;;
15665;SDS011;20725;51.196;3.510;2024-02-14T11:40:40;7.43;;;6.63;;
15665;SDS011;20725;51.196;3.510;2024-02-14T11:43:10;8.83;;;6.63;;
15665;SDS011;20725;51.196;3.510;2024-02-14T11:45:39;6.97;;;6.37;;
15665;SDS011;20725;51.196;3.510;2024-02-14T11:48:07;8.23;;;7.47;;
15665;SDS011;20725;51.196;3.510;2024-02-14T11:50:36;7.63;;;6.87;;
15665;SDS011;20725;51.196;3.510;2024-02-14T11:53:03;7.73;;;7.10;;
15665;SDS011;20725;51.196;3.510;2024-02-14T11:55:32;8.67;;;7.67;;
15665;SDS011;20725;51.196;3.510;2024-02-14T11:58:02;8.50;;;6.67;;
15665;SDS011;20725;51.196;3.510;2024-02-14T12:00:29;9.53;;;8.60;;
15665;SDS011;20725;51.196;3.510;2024-02-14T12:02:57;11.33;;;10.33;;
15665;SDS011;20725;51.196;3.510;2024-02-14T12:05:24;12.47;;;8.63;;
15665;SDS011;20725;51.196;3.510;2024-02-14T12:07:53;12.27;;;8.93;;
15665;SDS011;20725;51.196;3.510;2024-02-14T12:10:20;12.30;;;8.27;;
15665;SDS011;20725;51.196;3.510;2024-02-14T12:12:47;12.20;;;8.87;;
15665;SDS011;20725;51.196;3.510;2024-02-14T12:15:16;11.17;;;9.10;;
15665;SDS011;20725;51.196;3.510;2024-02-14T12:17:44;12.33;;;10.97;;
15665;SDS011;20725;51.196;3.510;2024-02-14T12:20:11;14.13;;;9.50;;
15665;SDS011;20725;51.196;3.510;2024-02-14T12:22:39;12.53;;;11.27;;
15665;SDS011;20725;51.196;3.510;2024-02-14T12:25:08;15.63;;;10.60;;
15665;SDS011;20725;51.196;3.510;2024-02-14T12:27:36;14.13;;;10.53;;
15665;SDS011;20725;51.196;3.510;2024-02-14T12:30:04;11.40;;;9.57;;
15665;SDS011;20725;51.196;3.510;2024-02-14T12:32:32;11.07;;;9.43;;
15665;SDS011;20725;51.196;3.510;2024-02-14T12:35:00;7.87;;;5.97;;
15665;SDS011;20725;51.196;3.510;2024-02-14T12:37:27;11.30;;;8.50;;
15665;SDS011;20725;51.196;3.510;2024-02-14T12:39:55;7.40;;;6.73;;
15665;SDS011;20725;51.196;3.510;2024-02-14T12:42:24;10.33;;;7.50;;
15665;SDS011;20725;51.196;3.510;2024-02-14T12:44:53;5.10;;;4.43;;
15665;SDS011;20725;51.196;3.510;2024-02-14T12:47:21;6.77;;;5.67;;
15665;SDS011;20725;51.196;3.510;2024-02-14T12:49:48;5.70;;;4.80;;
15665;SDS011;20725;51.196;3.510;2024-02-14T12:52:15;10.53;;;7.03;;
15665;SDS011;20725;51.196;3.510;2024-02-14T12:54:43;6.73;;;6.13;;
15665;SDS011;20725;51.196;3.510;2024-02-14T12:57:10;6.73;;;5.83;;
15665;SDS011;20725;51.196;3.510;2024-02-14T12:59:39;6.13;;;5.63;;
15665;SDS011;20725;51.196;3.510;2024-02-14T13:02:06;11.60;;;5.87;;
15665;SDS011;20725;51.196;3.510;2024-02-14T13:04:34;7.30;;;6.43;;
15665;SDS011;20725;51.196;3.510;2024-02-14T13:07:01;5.13;;;4.63;;
15665;SDS011;20725;51.196;3.510;2024-02-14T13:09:28;8.60;;;5.47;;
15665;SDS011;20725;51.196;3.510;2024-02-14T13:11:55;5.27;;;4.80;;
15665;SDS011;20725;51.196;3.510;2024-02-14T13:14:23;6.47;;;5.63;;
15665;SDS011;20725;51.196;3.510;2024-02-14T13:16:52;7.90;;;5.13;;
15665;SDS011;20725;51.196;3.510;2024-02-14T13:19:19;6.53;;;4.97;;
15665;SDS011;20725;51.196;3.510;2024-02-14T13:21:46;6.53;;;5.33;;
15665;SDS011;20725;51.196;3.510;2024-02-14T13:24:14;6.57;;;4.93;;
15665;SDS011;20725;51.196;3.510;2024-02-14T13:26:41;6.40;;;4.87;;
15665;SDS011;20725;51.196;3.510;2024-02-14T13:29:09;5.90;;;5.23;;
15665;SDS011;20725;51.196;3.510;2024-02-14T13:31:36;6.00;;;4.43;;
15665;SDS011;20725;51.196;3.510;2024-02-14T13:34:05;7.60;;;5.23;;
15665;SDS011;20725;51.196;3.510;2024-02-14T13:36:33;4.97;;;4.23;;
15665;SDS011;20725;51.196;3.510;2024-02-14T13:39:00;7.23;;;4.63;;
15665;SDS011;20725;51.196;3.510;2024-02-14T13:41:28;4.83;;;4.20;;
15665;SDS011;20725;51.196;3.510;2024-02-14T13:43:55;5.30;;;4.47;;
15665;SDS011;20725;51.196;3.510;2024-02-14T13:46:22;6.00;;;4.50;;
15665;SDS011;20725;51.196;3.510;2024-02-14T13:48:51;4.63;;;4.10;;
15665;SDS011;20725;51.196;3.510;2024-02-14T13:51:20;4.80;;;4.40;;
15665;SDS011;20725;51.196;3.510;2024-02-14T13:53:48;5.87;;;3.70;;
15665;SDS011;20725;51.196;3.510;2024-02-14T13:56:15;7.03;;;4.50;;
15665;SDS011;20725;51.196;3.510;2024-02-14T13:58:46;4.77;;;3.90;;
15665;SDS011;20725;51.196;3.510;2024-02-14T14:01:14;3.93;;;3.47;;
15665;SDS011;20725;51.196;3.510;2024-02-14T14:03:42;3.80;;;3.37;;
15665;SDS011;20725;51.196;3.510;2024-02-14T14:06:09;5.13;;;3.70;;
15665;SDS011;20725;51.196;3.510;2024-02-14T14:08:38;3.87;;;3.50;;
15665;SDS011;20725;51.196;3.510;2024-02-14T14:11:05;5.37;;;3.60;;
15665;SDS011;20725;51.196;3.510;2024-02-14T14:13:34;3.23;;;3.03;;
15665;SDS011;20725;51.196;3.510;2024-02-14T14:16:01;4.20;;;3.27;;
15665;SDS011;20725;51.196;3.510;2024-02-14T14:18:30;5.37;;;3.60;;
15665;SDS011;20725;51.196;3.510;2024-02-14T14:20:57;4.43;;;3.30;;
15665;SDS011;20725;51.196;3.510;2024-02-14T14:23:24;5.50;;;3.07;;
15665;SDS011;20725;51.196;3.510;2024-02-14T14:25:53;3.57;;;2.63;;
15665;SDS011;20725;51.196;3.510;2024-02-14T14:28:20;4.10;;;3.10;;
15665;SDS011;20725;51.196;3.510;2024-02-14T14:30:50;5.50;;;3.77;;
15665;SDS011;20725;51.196;3.510;2024-02-14T14:33:16;5.13;;;3.90;;
15665;SDS011;20725;51.196;3.510;2024-02-14T14:35:43;5.93;;;3.70;;
15665;SDS011;20725;51.196;3.510;2024-02-14T14:38:10;5.60;;;3.80;;
15665;SDS011;20725;51.196;3.510;2024-02-14T14:40:38;4.80;;;4.20;;
15665;SDS011;20725;51.196;3.510;2024-02-14T14:43:06;4.40;;;4.00;;